地図

経路データ

SID SEASON NUMBER BASIN SUBBASIN NAME ISO_TIME NATURE LAT LON WMO_WIND WMO_PRES WMO_AGENCY TRACK_TYPE DIST2LAND LANDFALL IFLAG USA_AGENCY USA_ATCF_ID USA_LAT USA_LON USA_RECORD USA_STATUS USA_WIND USA_PRES USA_SSHS USA_R34_NE USA_R34_SE USA_R34_SW USA_R34_NW USA_R50_NE USA_R50_SE USA_R50_SW USA_R50_NW USA_R64_NE USA_R64_SE USA_R64_SW USA_R64_NW USA_POCI USA_ROCI USA_RMW USA_EYE TOKYO_LAT TOKYO_LON TOKYO_GRADE TOKYO_WIND TOKYO_PRES TOKYO_R50_DIR TOKYO_R50_LONG TOKYO_R50_SHORT TOKYO_R30_DIR TOKYO_R30_LONG TOKYO_R30_SHORT TOKYO_LAND CMA_LAT CMA_LON CMA_CAT CMA_WIND CMA_PRES HKO_LAT HKO_LON HKO_CAT HKO_WIND HKO_PRES NEWDELHI_LAT NEWDELHI_LON NEWDELHI_GRADE NEWDELHI_WIND NEWDELHI_PRES NEWDELHI_CI NEWDELHI_DP NEWDELHI_POCI REUNION_LAT REUNION_LON REUNION_TYPE REUNION_WIND REUNION_PRES REUNION_TNUM REUNION_CI REUNION_RMW REUNION_R34_NE REUNION_R34_SE REUNION_R34_SW REUNION_R34_NW REUNION_R50_NE REUNION_R50_SE REUNION_R50_SW REUNION_R50_NW REUNION_R64_NE REUNION_R64_SE REUNION_R64_SW REUNION_R64_NW BOM_LAT BOM_LON BOM_TYPE BOM_WIND BOM_PRES BOM_TNUM BOM_CI BOM_RMW BOM_R34_NE BOM_R34_SE BOM_R34_SW BOM_R34_NW BOM_R50_NE BOM_R50_SE BOM_R50_SW BOM_R50_NW BOM_R64_NE BOM_R64_SE BOM_R64_SW BOM_R64_NW BOM_ROCI BOM_POCI BOM_EYE BOM_POS_METHOD BOM_PRES_METHOD NADI_LAT NADI_LON NADI_CAT NADI_WIND NADI_PRES WELLINGTON_LAT WELLINGTON_LON WELLINGTON_WIND WELLINGTON_PRES DS824_LAT DS824_LON DS824_STAGE DS824_WIND DS824_PRES TD9636_LAT TD9636_LON TD9636_STAGE TD9636_WIND TD9636_PRES TD9635_LAT TD9635_LON TD9635_WIND TD9635_PRES TD9635_ROCI NEUMANN_LAT NEUMANN_LON NEUMANN_CLASS NEUMANN_WIND NEUMANN_PRES MLC_LAT MLC_LON MLC_CLASS MLC_WIND MLC_PRES USA_GUST BOM_GUST BOM_GUST_PER REUNION_GUST REUNION_GUST_PER USA_SEAHGT USA_SEARAD_NE USA_SEARAD_SE USA_SEARAD_SW USA_SEARAD_NW STORM_SPEED STORM_DIR
1992262N17252 1992 89 EP MM SEYMORE:SEYMOUR 1992-09-17 12:00:00 TS 16.9000 -107.700 30 1009 hurdat_epa main 399 383 O_____________ hurdat_epa EP211992 16.9000 -107.700 TD 30 1009 -1 11 329
1992262N17252 1992 89 EP MM SEYMORE:SEYMOUR 1992-09-17 15:00:00 TS 17.3526 -107.985 main 383 377 P_____________ EP211992 17.3526 -107.985 TD 30 1008 -1 11 328
1992262N17252 1992 89 EP MM SEYMORE:SEYMOUR 1992-09-17 18:00:00 TS 17.8000 -108.300 30 1008 hurdat_epa main 380 377 O_____________ hurdat_epa EP211992 17.8000 -108.300 TD 30 1008 -1 11 323
1992262N17252 1992 89 EP MM SEYMORE:SEYMOUR 1992-09-17 21:00:00 TS 18.2299 -108.670 main 391 386 P_____________ EP211992 18.2299 -108.670 TD 32 1006 -1 11 316
1992262N17252 1992 89 EP MM SEYMORE:SEYMOUR 1992-09-18 00:00:00 TS 18.6000 -109.100 35 1005 hurdat_epa main 408 408 O_____________ hurdat_epa EP211992 18.6000 -109.100 TS 35 1005 0 11 307
1992262N17252 1992 89 EP MM SEYMORE:SEYMOUR 1992-09-18 03:00:00 TS 18.8876 -109.600 main 441 424 P_____________ EP211992 18.8876 -109.600 TS 37 1003 0 11 298
1992262N17252 1992 89 EP MM SEYMORE:SEYMOUR 1992-09-18 06:00:00 TS 19.1000 -110.100 40 1002 hurdat_epa main 425 405 O_____________ hurdat_epa EP211992 19.1000 -110.100 TS 40 1002 0 9 294
1992262N17252 1992 89 EP MM SEYMORE:SEYMOUR 1992-09-18 09:00:00 TS 19.2723 -110.508 main 405 398 P_____________ EP211992 19.2723 -110.508 TS 42 999 0 8 292
1992262N17252 1992 89 EP MM SEYMORE:SEYMOUR 1992-09-18 12:00:00 TS 19.4000 -110.900 45 997 hurdat_epa main 402 396 O_____________ hurdat_epa EP211992 19.4000 -110.900 TS 45 997 0 8 286
1992262N17252 1992 89 EP MM SEYMORE:SEYMOUR 1992-09-18 15:00:00 TS 19.5001 -111.365 main 406 404 P_____________ EP211992 19.5001 -111.365 TS 47 996 0 9 283
1992262N17252 1992 89 EP MM SEYMORE:SEYMOUR 1992-09-18 18:00:00 TS 19.6000 -111.800 50 995 hurdat_epa main 413 408 O_____________ hurdat_epa EP211992 19.6000 -111.800 TS 50 995 0 8 288
1992262N17252 1992 89 EP MM SEYMORE:SEYMOUR 1992-09-18 21:00:00 TS 19.7424 -112.138 main 418 411 P_____________ EP211992 19.7424 -112.138 TS 52 993 0 6 298
1992262N17252 1992 89 EP MM SEYMORE:SEYMOUR 1992-09-19 00:00:00 TS 19.9000 -112.400 55 992 hurdat_epa main 417 414 O_____________ hurdat_epa EP211992 19.9000 -112.400 TS 55 992 0 6 304
1992262N17252 1992 89 EP MM SEYMORE:SEYMOUR 1992-09-19 03:00:00 TS 20.0500 -112.630 main 421 412 P_____________ EP211992 20.0500 -112.630 TS 57 991 0 5 309
1992262N17252 1992 89 EP MM SEYMORE:SEYMOUR 1992-09-19 06:00:00 TS 20.2000 -112.800 60 990 hurdat_epa main 418 410 O_____________ hurdat_epa EP211992 20.2000 -112.800 TS 60 990 0 4 318
1992262N17252 1992 89 EP MM SEYMORE:SEYMOUR 1992-09-19 09:00:00 TS 20.3349 -112.908 main 417 409 P_____________ EP211992 20.3349 -112.908 TS 62 988 0 4 329
1992262N17252 1992 89 EP MM SEYMORE:SEYMOUR 1992-09-19 12:00:00 TS 20.5000 -113.000 65 987 hurdat_epa main 409 402 O_____________ hurdat_epa EP211992 20.5000 -113.000 HU 65 987 1 5 331
1992262N17252 1992 89 EP MM SEYMORE:SEYMOUR 1992-09-19 15:00:00 TS 20.7425 -113.150 main 403 398 P_____________ EP211992 20.7425 -113.150 HU 65 985 1 6 331
1992262N17252 1992 89 EP MM SEYMORE:SEYMOUR 1992-09-19 18:00:00 TS 21.0000 -113.300 65 984 hurdat_epa main 401 395 O_____________ hurdat_epa EP211992 21.0000 -113.300 HU 65 984 1 5 333
1992262N17252 1992 89 EP MM SEYMORE:SEYMOUR 1992-09-19 21:00:00 TS 21.1999 -113.393 main 398 387 P_____________ EP211992 21.1999 -113.393 HU 65 983 1 4 335
1992262N17252 1992 89 EP MM SEYMORE:SEYMOUR 1992-09-20 00:00:00 TS 21.4000 -113.500 65 982 hurdat_epa main 387 372 O_____________ hurdat_epa EP211992 21.4000 -113.500 HU 65 982 1 5 329
1992262N17252 1992 89 EP MM SEYMORE:SEYMOUR 1992-09-20 03:00:00 TS 21.6500 -113.685 main 368 361 P_____________ EP211992 21.6500 -113.685 HU 67 981 1 6 323
1992262N17252 1992 89 EP MM SEYMORE:SEYMOUR 1992-09-20 06:00:00 TS 21.9000 -113.900 70 981 hurdat_epa main 361 349 O_____________ hurdat_epa EP211992 21.9000 -113.900 HU 70 981 1 6 320
1992262N17252 1992 89 EP MM SEYMORE:SEYMOUR 1992-09-20 09:00:00 TS 22.1075 -114.100 main 355 345 P_____________ EP211992 22.1075 -114.100 HU 72 980 1 5 317
1992262N17252 1992 89 EP MM SEYMORE:SEYMOUR 1992-09-20 12:00:00 TS 22.3000 -114.300 75 980 hurdat_epa main 349 346 O_____________ hurdat_epa EP211992 22.3000 -114.300 HU 75 980 1 5 316
1992262N17252 1992 89 EP MM SEYMORE:SEYMOUR 1992-09-20 15:00:00 TS 22.5000 -114.508 main 346 346 P_____________ EP211992 22.5000 -114.508 HU 72 981 1 5 317
1992262N17252 1992 89 EP MM SEYMORE:SEYMOUR 1992-09-20 18:00:00 TS 22.7000 -114.700 70 983 hurdat_epa main 346 338 O_____________ hurdat_epa EP211992 22.7000 -114.700 HU 70 983 1 5 323
1992262N17252 1992 89 EP MM SEYMORE:SEYMOUR 1992-09-20 21:00:00 TS 22.9074 -114.843 main 339 339 P_____________ EP211992 22.9074 -114.843 HU 67 985 1 5 325
1992262N17252 1992 89 EP MM SEYMORE:SEYMOUR 1992-09-21 00:00:00 TS 23.1000 -115.000 65 987 hurdat_epa main 341 341 O_____________ hurdat_epa EP211992 23.1000 -115.000 HU 65 987 1 5 316
1992262N17252 1992 89 EP MM SEYMORE:SEYMOUR 1992-09-21 03:00:00 TS 23.2725 -115.227 main 347 347 P_____________ EP211992 23.2725 -115.227 HU 62 988 0 5 303
1992262N17252 1992 89 EP MM SEYMORE:SEYMOUR 1992-09-21 06:00:00 TS 23.4000 -115.500 60 990 hurdat_epa main 369 369 O_____________ hurdat_epa EP211992 23.4000 -115.500 TS 60 990 0 6 290
1992262N17252 1992 89 EP MM SEYMORE:SEYMOUR 1992-09-21 09:00:00 TS 23.4650 -115.800 main 392 392 P_____________ EP211992 23.4650 -115.800 TS 57 992 0 6 280
1992262N17252 1992 89 EP MM SEYMORE:SEYMOUR 1992-09-21 12:00:00 TS 23.5000 -116.100 55 994 hurdat_epa main 421 421 O_____________ hurdat_epa EP211992 23.5000 -116.100 TS 55 994 0 5 280
1992262N17252 1992 89 EP MM SEYMORE:SEYMOUR 1992-09-21 15:00:00 TS 23.5498 -116.335 main 440 436 P_____________ EP211992 23.5498 -116.335 TS 52 995 0 5 282
1992262N17252 1992 89 EP MM SEYMORE:SEYMOUR 1992-09-21 18:00:00 TS 23.6000 -116.600 50 996 hurdat_epa main 458 458 O_____________ hurdat_epa EP211992 23.6000 -116.600 TS 50 996 0 6 280
1992262N17252 1992 89 EP MM SEYMORE:SEYMOUR 1992-09-21 21:00:00 TS 23.6501 -116.985 main 470 470 P_____________ EP211992 23.6501 -116.985 TS 50 997 0 7 278
1992262N17252 1992 89 EP MM SEYMORE:SEYMOUR 1992-09-22 00:00:00 TS 23.7000 -117.400 50 999 hurdat_epa main 493 493 O_____________ hurdat_epa EP211992 23.7000 -117.400 TS 50 999 0 7 279
1992262N17252 1992 89 EP MM SEYMORE:SEYMOUR 1992-09-22 03:00:00 TS 23.7574 -117.765 main 510 510 P_____________ EP211992 23.7574 -117.765 TS 47 999 0 6 279
1992262N17252 1992 89 EP MM SEYMORE:SEYMOUR 1992-09-22 06:00:00 TS 23.8000 -118.100 45 1000 hurdat_epa main 530 530 O_____________ hurdat_epa EP211992 23.8000 -118.100 TS 45 1000 0 6 273
1992262N17252 1992 89 EP MM SEYMORE:SEYMOUR 1992-09-22 09:00:00 TS 23.7924 -118.408 main 552 552 P_____________ EP211992 23.7924 -118.408 TS 50 997 0 5 270
1992262N17252 1992 89 EP MM SEYMORE:SEYMOUR 1992-09-22 12:00:00 TS 23.8000 -118.700 55 995 hurdat_epa main 571 571 O_____________ hurdat_epa EP211992 23.8000 -118.700 TS 55 995 0 5 279
1992262N17252 1992 89 EP MM SEYMORE:SEYMOUR 1992-09-22 15:00:00 TS 23.8774 -119.000 main 583 583 P_____________ EP211992 23.8774 -119.000 TS 60 992 0 6 290
1992262N17252 1992 89 EP MM SEYMORE:SEYMOUR 1992-09-22 18:00:00 TS 24.0000 -119.300 65 990 hurdat_epa main 596 595 O_____________ hurdat_epa EP211992 24.0000 -119.300 HU 65 990 1 6 297
1992262N17252 1992 89 EP MM SEYMORE:SEYMOUR 1992-09-22 21:00:00 TS 24.1575 -119.607 main 603 603 P_____________ EP211992 24.1575 -119.607 HU 65 986 1 6 299
1992262N17252 1992 89 EP MM SEYMORE:SEYMOUR 1992-09-23 00:00:00 TS 24.3000 -119.900 65 983 hurdat_epa main 619 619 O_____________ hurdat_epa EP211992 24.3000 -119.900 HU 65 983 1 5 292
1992262N17252 1992 89 EP MM SEYMORE:SEYMOUR 1992-09-23 03:00:00 TS 24.3649 -120.158 main 636 636 P_____________ EP211992 24.3649 -120.158 HU 67 982 1 5 282
1992262N17252 1992 89 EP MM SEYMORE:SEYMOUR 1992-09-23 06:00:00 TS 24.4000 -120.400 70 982 hurdat_epa main 652 652 O_____________ hurdat_epa EP211992 24.4000 -120.400 HU 70 982 1 5 282
1992262N17252 1992 89 EP MM SEYMORE:SEYMOUR 1992-09-23 09:00:00 TS 24.4575 -120.650 main 663 663 P_____________ EP211992 24.4575 -120.650 HU 67 983 1 5 282
1992262N17252 1992 89 EP MM SEYMORE:SEYMOUR 1992-09-23 12:00:00 TS 24.5000 -120.900 65 985 hurdat_epa main 688 688 O_____________ hurdat_epa EP211992 24.5000 -120.900 HU 65 985 1 5 278
1992262N17252 1992 89 EP MM SEYMORE:SEYMOUR 1992-09-23 15:00:00 TS 24.5225 -121.157 main 714 714 P_____________ EP211992 24.5225 -121.157 HU 62 986 0 5 270
1992262N17252 1992 89 EP MM SEYMORE:SEYMOUR 1992-09-23 18:00:00 TS 24.5000 -121.400 60 987 hurdat_epa main 731 731 O_____________ hurdat_epa EP211992 24.5000 -121.400 TS 60 987 0 4 256
1992262N17252 1992 89 EP MM SEYMORE:SEYMOUR 1992-09-23 21:00:00 TS 24.4150 -121.615 main 754 754 P_____________ EP211992 24.4150 -121.615 TS 57 990 0 4 241
1992262N17252 1992 89 EP MM SEYMORE:SEYMOUR 1992-09-24 00:00:00 TS 24.3000 -121.800 55 994 hurdat_epa main 777 777 O_____________ hurdat_epa EP211992 24.3000 -121.800 TS 55 994 0 4 237
1992262N17252 1992 89 EP MM SEYMORE:SEYMOUR 1992-09-24 03:00:00 TS 24.2149 -121.950 main 792 792 P_____________ EP211992 24.2149 -121.950 TS 55 994 0 3 234
1992262N17252 1992 89 EP MM SEYMORE:SEYMOUR 1992-09-24 06:00:00 TS 24.1000 -122.100 55 995 hurdat_epa main 815 815 O_____________ hurdat_epa EP211992 24.1000 -122.100 TS 55 995 0 4 228
1992262N17252 1992 89 EP MM SEYMORE:SEYMOUR 1992-09-24 09:00:00 TS 23.9300 -122.292 main 844 844 P_____________ EP211992 23.9300 -122.292 TS 52 996 0 5 222
1992262N17252 1992 89 EP MM SEYMORE:SEYMOUR 1992-09-24 12:00:00 TS 23.7000 -122.500 50 997 hurdat_epa main 873 873 O_____________ hurdat_epa EP211992 23.7000 -122.500 TS 50 997 0 6 215
1992262N17252 1992 89 EP MM SEYMORE:SEYMOUR 1992-09-24 15:00:00 TS 23.4075 -122.700 main 908 908 P_____________ EP211992 23.4075 -122.700 TS 47 998 0 7 211
1992262N17252 1992 89 EP MM SEYMORE:SEYMOUR 1992-09-24 18:00:00 TS 23.1000 -122.900 45 1000 hurdat_epa main 944 944 O_____________ hurdat_epa EP211992 23.1000 -122.900 TS 45 1000 0 7 212
1992262N17252 1992 89 EP MM SEYMORE:SEYMOUR 1992-09-24 21:00:00 TS 22.8349 -123.092 main 980 980 P_____________ EP211992 22.8349 -123.092 TS 42 1002 0 6 216
1992262N17252 1992 89 EP MM SEYMORE:SEYMOUR 1992-09-25 00:00:00 TS 22.6000 -123.300 40 1004 hurdat_epa main 1010 1010 O_____________ hurdat_epa EP211992 22.6000 -123.300 TS 40 1004 0 6 223
1992262N17252 1992 89 EP MM SEYMORE:SEYMOUR 1992-09-25 03:00:00 TS 22.3925 -123.542 main 1040 1040 P_____________ EP211992 22.3925 -123.542 TS 37 1004 0 6 229
1992262N17252 1992 89 EP MM SEYMORE:SEYMOUR 1992-09-25 06:00:00 TS 22.2000 -123.800 35 1005 hurdat_epa main 1078 1078 O_____________ hurdat_epa EP211992 22.2000 -123.800 TS 35 1005 0 6 229
1992262N17252 1992 89 EP MM SEYMORE:SEYMOUR 1992-09-25 09:00:00 TS 21.9850 -124.058 main 1116 1116 P_____________ EP211992 21.9850 -124.058 TS 32 1006 -1 6 229
1992262N17252 1992 89 EP MM SEYMORE:SEYMOUR 1992-09-25 12:00:00 TS 21.8000 -124.300 30 1008 hurdat_epa main 1146 1146 O_____________ hurdat_epa EP211992 21.8000 -124.300 TD 30 1008 -1 5 232
1992262N17252 1992 89 EP MM SEYMORE:SEYMOUR 1992-09-25 15:00:00 TS 21.6699 -124.500 main 1169 1169 P_____________ EP211992 21.6699 -124.500 TD 30 1008 -1 4 242
1992262N17252 1992 89 EP MM SEYMORE:SEYMOUR 1992-09-25 18:00:00 TS 21.6000 -124.700 30 1009 hurdat_epa main 1192 1192 O_____________ hurdat_epa EP211992 21.6000 -124.700 TD 30 1009 -1 4 259
1992262N17252 1992 89 EP MM SEYMORE:SEYMOUR 1992-09-25 21:00:00 TS 21.5925 -124.942 main 1209 1209 P_____________ EP211992 21.5925 -124.942 TD 27 1009 -1 5 270
1992262N17252 1992 89 EP MM SEYMORE:SEYMOUR 1992-09-26 00:00:00 TS 21.6000 -125.200 25 1009 hurdat_epa main 1234 1234 O_____________ hurdat_epa EP211992 21.6000 -125.200 TD 25 1009 -1 5 265
1992262N17252 1992 89 EP MM SEYMORE:SEYMOUR 1992-09-26 03:00:00 TS 21.5499 -125.443 main 1257 1257 P_____________ EP211992 21.5499 -125.443 TD 25 1009 -1 5 258
1992262N17252 1992 89 EP MM SEYMORE:SEYMOUR 1992-09-26 06:00:00 TS 21.5000 -125.700 25 1009 hurdat_epa main 1283 1283 O_____________ hurdat_epa EP211992 21.5000 -125.700 TD 25 1009 -1 5 263
1992262N17252 1992 89 EP MM SEYMORE:SEYMOUR 1992-09-26 09:00:00 TS 21.4849 -125.985 main 1308 1308 P_____________ EP211992 21.4849 -125.985 TD 25 1009 -1 6 270
1992262N17252 1992 89 EP MM SEYMORE:SEYMOUR 1992-09-26 12:00:00 TS 21.5000 -126.300 25 1010 hurdat_epa main 1334 1334 O_____________ hurdat_epa EP211992 21.5000 -126.300 TD 25 1010 -1 6 273
1992262N17252 1992 89 EP MM SEYMORE:SEYMOUR 1992-09-26 15:00:00 TS 21.5125 -126.650 main 1369 1369 P_____________ EP211992 21.5125 -126.650 TD 25 1010 -1 7 279
1992262N17252 1992 89 EP MM SEYMORE:SEYMOUR 1992-09-26 18:00:00 TS 21.6000 -127.000 25 1010 hurdat_epa main 1389 1389 O_____________ hurdat_epa EP211992 21.6000 -127.000 TD 25 1010 -1 7 295
1992262N17252 1992 89 EP MM SEYMORE:SEYMOUR 1992-09-26 21:00:00 TS 21.7899 -127.300 main 1404 1404 P_____________ EP211992 21.7899 -127.300 TD 25 1010 -1 8 312
1992262N17252 1992 89 EP MM SEYMORE:SEYMOUR 1992-09-27 00:00:00 TS 22.1000 -127.600 25 1010 hurdat_epa main 1414 1413 O_____________ hurdat_epa EP211992 22.1000 -127.600 TD 25 1010 -1 9 321
1992262N17252 1992 89 EP MM SEYMORE:SEYMOUR 1992-09-27 03:00:00 TS 22.5202 -127.937 main 1420 1420 P_____________ EP211992 22.5202 -127.937 TD 25 1010 -1 11 324
1992262N17252 1992 89 EP MM SEYMORE:SEYMOUR 1992-09-27 06:00:00 TS 23.0000 -128.300 25 1010 hurdat_epa main 1433 O_____________ hurdat_epa EP211992 23.0000 -128.300 TD 25 1010 -1 12 325

IBTrACS Databaseについて

本データベースは、米国NOAAが公開する1842年以降の世界の熱帯低気圧のベストトラックデータアーカイブInternational Best Track Archive for Climate Stewardship (IBTrACS)を、ウェブで閲覧しやすい形式に変換したものです。

最終更新日:2021-10-19